createdAt,value
2023-01-13T00:01:22.118Z,99.04
2023-01-13T00:03:50.660Z,99.11
2023-01-13T00:06:20.698Z,99.37
2023-01-13T00:08:49.802Z,99.22
2023-01-13T00:11:19.825Z,99.60
2023-01-13T00:13:48.221Z,99.10
2023-01-13T00:16:17.650Z,98.70
2023-01-13T00:18:46.511Z,97.81
2023-01-13T00:21:16.434Z,97.31
2023-01-13T00:23:45.084Z,97.86
2023-01-13T00:26:16.038Z,98.20
2023-01-13T00:28:45.520Z,98.39
2023-01-13T00:31:15.518Z,98.76
2023-01-13T00:33:43.986Z,98.62
2023-01-13T00:36:13.535Z,98.81
2023-01-13T00:38:43.026Z,98.99
2023-01-13T00:41:12.414Z,98.63
2023-01-13T00:43:39.831Z,99.02
2023-01-13T00:46:10.889Z,99.51
2023-01-13T00:48:39.489Z,99.30
2023-01-13T00:51:09.913Z,99.52
2023-01-13T00:53:39.150Z,99.39
2023-01-13T00:56:09.782Z,99.50
2023-01-13T00:58:38.046Z,99.54
2023-01-13T01:01:09.392Z,99.88
2023-01-13T01:03:39.457Z,100.00
2023-01-13T01:06:09.651Z,100.00
2023-01-13T01:08:37.990Z,100.00
2023-01-13T01:11:07.215Z,100.00
2023-01-13T01:13:36.010Z,100.00
2023-01-13T01:16:07.306Z,100.00
2023-01-13T01:18:35.787Z,100.00
2023-01-13T01:21:05.903Z,100.00
2023-01-13T01:23:35.350Z,100.00
2023-01-13T01:26:04.179Z,100.00
2023-01-13T01:28:32.489Z,100.00
2023-01-13T01:31:01.994Z,100.00
2023-01-13T01:33:30.164Z,100.00
2023-01-13T01:35:58.274Z,100.00
2023-01-13T01:38:27.926Z,100.00
2023-01-13T01:40:56.217Z,100.00
2023-01-13T01:44:03.000Z,100.00
2023-01-13T01:46:33.658Z,100.00
2023-01-13T01:49:10.144Z,100.00
2023-01-13T01:51:40.711Z,100.00
2023-01-13T01:54:12.335Z,99.88
2023-01-13T01:56:42.976Z,99.85
2023-01-13T01:59:11.517Z,99.61
2023-01-13T02:01:40.882Z,99.26
2023-01-13T02:04:13.561Z,99.38
2023-01-13T02:06:42.339Z,99.64
2023-01-13T02:09:12.120Z,99.15
2023-01-13T02:11:57.623Z,99.12
2023-01-13T02:14:29.509Z,99.16
2023-01-13T02:17:16.251Z,99.22
2023-01-13T02:20:05.497Z,99.22
2023-01-13T02:22:53.616Z,99.08
2023-01-13T02:25:48.852Z,99.26
2023-01-13T02:28:38.038Z,99.40
2023-01-13T02:31:28.609Z,99.23
2023-01-13T02:34:03.273Z,99.40
2023-01-13T02:36:39.093Z,99.09
2023-01-13T02:39:14.130Z,99.09
2023-01-13T02:42:05.753Z,99.28
2023-01-13T02:44:42.145Z,99.50
2023-01-13T02:47:15.615Z,99.64
2023-01-13T02:49:46.307Z,99.51
2023-01-13T02:52:17.711Z,99.40
2023-01-13T02:54:50.080Z,99.59
2023-01-13T02:57:19.323Z,99.62
2023-01-13T02:59:47.652Z,99.61
2023-01-13T03:02:21.343Z,99.82
2023-01-13T03:04:55.032Z,99.96
2023-01-13T03:07:58.166Z,99.96
2023-01-13T03:10:47.501Z,99.80
2023-01-13T03:14:01.258Z,99.81
2023-01-13T03:16:40.253Z,99.86
2023-01-13T03:19:17.014Z,99.94
2023-01-13T03:21:51.754Z,99.88
2023-01-13T03:24:23.732Z,100.00
2023-01-13T03:26:56.258Z,100.00
2023-01-13T03:29:27.025Z,100.00
2023-01-13T03:31:59.674Z,100.00
2023-01-13T03:34:32.659Z,100.00
2023-01-13T03:37:03.477Z,100.00
2023-01-13T03:39:34.127Z,100.00
2023-01-13T03:42:05.805Z,99.99
2023-01-13T03:44:34.962Z,100.00
2023-01-13T03:47:08.860Z,100.00
2023-01-13T03:49:42.191Z,99.99
2023-01-13T03:52:14.393Z,100.00
2023-01-13T03:54:47.725Z,100.00
2023-01-13T03:57:17.539Z,99.89
2023-01-13T03:59:49.863Z,99.92
2023-01-13T04:02:23.354Z,99.84
2023-01-13T04:04:55.933Z,99.80
2023-01-13T04:07:29.830Z,99.78
2023-01-13T04:10:00.355Z,99.63
2023-01-13T04:12:52.432Z,99.76
2023-01-13T04:15:23.047Z,99.53
2023-01-13T04:17:51.305Z,99.27
2023-01-13T04:20:21.134Z,99.08
2023-01-13T04:22:49.202Z,99.18
2023-01-13T04:25:17.547Z,98.93
2023-01-13T04:27:45.821Z,98.78
2023-01-13T04:30:14.460Z,98.32
2023-01-13T04:32:42.542Z,98.51
2023-01-13T04:35:10.857Z,98.41
2023-01-13T04:37:40.318Z,98.29
2023-01-13T04:40:09.868Z,98.08
2023-01-13T04:42:37.931Z,97.81
2023-01-13T04:45:06.817Z,97.51
2023-01-13T04:47:34.903Z,97.43
2023-01-13T04:50:02.996Z,97.28
2023-01-13T04:52:31.061Z,97.68
2023-01-13T04:55:00.494Z,97.10
2023-01-13T04:57:28.676Z,97.33
2023-01-13T04:59:56.748Z,96.89
2023-01-13T05:02:24.809Z,96.58
2023-01-13T05:04:52.898Z,96.80
2023-01-13T05:07:20.997Z,96.43
2023-01-13T05:09:49.076Z,96.49
2023-01-13T05:12:36.041Z,96.01
2023-01-13T05:15:22.170Z,95.54
2023-01-13T05:17:50.899Z,94.97
2023-01-13T05:20:19.368Z,95.52
2023-01-13T05:23:04.983Z,95.96
2023-01-13T05:25:33.669Z,95.72
2023-01-13T05:28:03.080Z,95.54
2023-01-13T05:30:33.383Z,95.17
2023-01-13T05:33:01.536Z,95.48
2023-01-13T05:35:30.182Z,95.71
2023-01-13T05:37:58.297Z,95.54
2023-01-13T05:40:43.765Z,95.15
2023-01-13T05:43:21.392Z,95.42
2023-01-13T05:45:50.620Z,95.64
2023-01-13T05:48:19.446Z,95.13
2023-01-13T05:50:49.176Z,95.19
2023-01-13T05:53:18.314Z,94.78
2023-01-13T05:55:46.856Z,94.92
2023-01-13T05:58:17.785Z,95.58
2023-01-13T06:00:46.179Z,94.96
2023-01-13T06:03:15.970Z,94.93
2023-01-13T06:05:44.555Z,95.43
2023-01-13T06:08:12.637Z,94.76
2023-01-13T06:10:40.704Z,94.90
2023-01-13T06:13:08.804Z,95.11
2023-01-13T06:15:38.244Z,95.42
2023-01-13T06:18:06.657Z,95.42
2023-01-13T06:20:35.009Z,95.71
2023-01-13T06:23:03.094Z,95.34
2023-01-13T06:25:39.390Z,96.11
2023-01-13T06:28:07.513Z,95.81
2023-01-13T06:30:40.726Z,96.00
2023-01-13T06:33:12.182Z,95.82
2023-01-13T06:35:42.221Z,95.75
2023-01-13T06:38:12.116Z,95.79
2023-01-13T06:40:41.953Z,95.87
2023-01-13T06:43:16.299Z,96.03
2023-01-13T06:45:48.956Z,96.17
2023-01-13T06:48:17.600Z,95.59
2023-01-13T06:50:45.859Z,95.75
2023-01-13T06:53:13.968Z,95.56
2023-01-13T06:55:42.083Z,95.45
2023-01-13T06:58:10.243Z,95.18
2023-01-13T07:00:38.525Z,95.70
2023-01-13T07:03:12.350Z,95.64
2023-01-13T07:05:41.659Z,95.46
2023-01-13T07:08:10.304Z,95.88
2023-01-13T07:10:38.731Z,95.25
2023-01-13T07:13:24.460Z,95.58
2023-01-13T07:15:56.913Z,95.35
2023-01-13T07:18:28.475Z,95.29
2023-01-13T07:20:57.736Z,95.57
2023-01-13T07:23:26.629Z,95.49
2023-01-13T07:25:56.479Z,95.58
2023-01-13T07:28:25.039Z,95.44
2023-01-13T07:30:53.320Z,95.36
2023-01-13T07:33:21.920Z,95.67
2023-01-13T07:35:57.842Z,95.39
2023-01-13T07:38:26.023Z,94.51
2023-01-13T07:40:54.135Z,95.28
2023-01-13T07:43:33.314Z,95.13
2023-01-13T07:46:03.075Z,94.26
2023-01-13T07:48:32.109Z,95.22
2023-01-13T07:51:04.671Z,94.70
2023-01-13T07:53:32.931Z,94.67
2023-01-13T07:56:01.203Z,94.51
2023-01-13T07:58:29.996Z,94.40
2023-01-13T08:00:58.474Z,93.97
2023-01-13T08:03:27.634Z,94.31
2023-01-13T08:05:55.712Z,94.04
2023-01-13T08:08:25.180Z,94.09
2023-01-13T08:10:53.260Z,94.26
2023-01-13T08:13:21.188Z,94.11
2023-01-13T08:15:51.196Z,94.15
2023-01-13T08:18:22.058Z,94.43
2023-01-13T08:20:52.323Z,93.90
2023-01-13T08:23:20.873Z,93.91
2023-01-13T08:25:51.151Z,93.38
2023-01-13T08:28:19.219Z,92.83
2023-01-13T08:30:47.388Z,93.22
2023-01-13T08:33:15.519Z,92.85
2023-01-13T08:35:43.721Z,94.00
2023-01-13T08:38:11.779Z,93.53
2023-01-13T08:40:41.157Z,93.66
2023-01-13T08:43:10.651Z,93.29
2023-01-13T08:45:38.735Z,92.75
2023-01-13T08:48:07.295Z,92.69
2023-01-13T08:50:35.586Z,93.38
2023-01-13T08:53:03.922Z,93.18
2023-01-13T08:55:31.990Z,93.50
2023-01-13T08:58:14.708Z,93.12
2023-01-13T09:00:45.951Z,92.44
2023-01-13T09:03:14.058Z,91.92
2023-01-13T09:05:42.140Z,92.61
2023-01-13T09:08:10.245Z,92.41
2023-01-13T09:10:40.348Z,91.83
2023-01-13T09:13:13.183Z,91.61
2023-01-13T09:15:43.036Z,92.62
2023-01-13T09:18:12.748Z,93.01
2023-01-13T09:20:41.022Z,91.21
2023-01-13T09:23:10.976Z,91.37
2023-01-13T09:25:39.569Z,91.70
2023-01-13T09:28:08.475Z,91.29
2023-01-13T09:30:38.024Z,91.74
2023-01-13T09:33:23.642Z,92.35
2023-01-13T09:35:53.182Z,92.79
2023-01-13T09:38:21.251Z,92.41
2023-01-13T09:40:50.258Z,92.71
2023-01-13T09:43:40.003Z,93.15
2023-01-13T09:46:36.260Z,93.29
2023-01-13T09:49:04.742Z,93.75
2023-01-13T09:51:40.185Z,94.05
2023-01-13T09:54:16.155Z,94.28
2023-01-13T09:56:44.573Z,94.60
2023-01-13T09:59:13.202Z,94.92
2023-01-13T10:01:51.777Z,94.96
2023-01-13T10:04:19.953Z,95.04
2023-01-13T10:06:53.049Z,95.23
2023-01-13T10:09:27.715Z,95.12
2023-01-13T10:12:14.825Z,95.38
2023-01-13T10:14:46.741Z,95.42
2023-01-13T10:17:20.371Z,95.37
2023-01-13T10:19:51.847Z,95.52
2023-01-13T10:22:44.757Z,95.35
2023-01-13T10:25:28.499Z,95.45
2023-01-13T10:27:57.686Z,95.01
2023-01-13T10:30:31.241Z,95.21
2023-01-13T10:33:01.075Z,94.66
2023-01-13T10:35:55.472Z,94.39
2023-01-13T10:38:26.742Z,94.63
2023-01-13T10:40:56.546Z,93.48
2023-01-13T10:43:25.061Z,93.46
2023-01-13T10:46:00.430Z,93.72
2023-01-13T10:48:40.377Z,93.27
2023-01-13T10:51:20.647Z,93.03
2023-01-13T10:53:55.158Z,93.97
2023-01-13T10:56:25.131Z,93.74
2023-01-13T10:58:53.231Z,93.80
2023-01-13T11:01:26.876Z,93.17
2023-01-13T11:03:56.214Z,93.33
2023-01-13T11:06:27.279Z,93.78
2023-01-13T11:08:59.145Z,94.29
2023-01-13T11:11:37.426Z,94.44
2023-01-13T11:14:26.454Z,94.64
2023-01-13T11:16:58.887Z,94.95
2023-01-13T11:19:28.644Z,95.10
2023-01-13T11:22:01.000Z,95.16
2023-01-13T11:24:36.749Z,95.11
2023-01-13T11:27:08.353Z,95.29
2023-01-13T11:29:42.194Z,95.25
2023-01-13T11:32:13.604Z,95.16
2023-01-13T11:34:45.050Z,95.31
2023-01-13T11:37:20.635Z,95.22
2023-01-13T11:39:56.840Z,95.39
2023-01-13T11:42:27.623Z,95.26
2023-01-13T11:45:05.893Z,95.12
2023-01-13T11:47:35.052Z,94.95
2023-01-13T11:50:05.770Z,95.27
2023-01-13T11:52:49.026Z,95.16
2023-01-13T11:55:27.247Z,95.20
2023-01-13T11:58:07.443Z,95.43
2023-01-13T12:00:45.916Z,95.64
2023-01-13T12:03:24.377Z,95.55
2023-01-13T12:06:03.527Z,95.76
2023-01-13T12:08:53.140Z,96.06
2023-01-13T12:11:27.464Z,96.34
2023-01-13T12:14:10.405Z,96.11
2023-01-13T12:16:43.304Z,96.21
2023-01-13T12:19:24.430Z,96.51
2023-01-13T12:22:09.144Z,96.30
2023-01-13T12:24:42.012Z,96.58
2023-01-13T12:27:17.001Z,96.49
2023-01-13T12:29:46.223Z,96.69
2023-01-13T12:32:19.117Z,96.85
2023-01-13T12:34:53.433Z,96.60
2023-01-13T12:37:26.949Z,96.75
2023-01-13T12:40:05.487Z,96.55
2023-01-13T12:42:59.047Z,96.44
2023-01-13T12:45:29.526Z,96.24
2023-01-13T12:47:58.098Z,96.27
2023-01-13T12:50:43.649Z,96.10
2023-01-13T12:53:33.718Z,96.18
2023-01-13T12:56:28.753Z,96.22
2023-01-13T12:59:41.558Z,96.10
2023-01-13T13:02:37.662Z,95.97
2023-01-13T13:05:35.082Z,96.02
2023-01-13T13:08:09.005Z,95.87
2023-01-13T13:10:39.751Z,95.43
2023-01-13T13:13:20.410Z,95.71
2023-01-13T13:15:49.299Z,95.64
2023-01-13T13:18:28.497Z,95.79
2023-01-13T13:21:04.206Z,96.05
2023-01-13T13:23:49.033Z,95.92
2023-01-13T13:26:23.883Z,95.85
2023-01-13T13:29:12.915Z,95.33
2023-01-13T13:32:04.056Z,95.58
2023-01-13T13:34:36.762Z,95.82
2023-01-13T13:37:22.818Z,95.59
2023-01-13T13:40:17.117Z,95.58
2023-01-13T13:43:10.289Z,95.95
2023-01-13T13:45:56.066Z,96.09
2023-01-13T13:48:26.740Z,96.01
2023-01-13T13:51:01.062Z,96.28
2023-01-13T13:53:32.226Z,96.60
2023-01-13T13:56:02.737Z,96.86
2023-01-13T13:58:36.559Z,96.89
2023-01-13T14:01:05.396Z,96.49
2023-01-13T14:03:38.306Z,96.72
2023-01-13T14:06:22.653Z,96.87
2023-01-13T14:08:51.657Z,97.01
2023-01-13T14:11:27.227Z,96.97
2023-01-13T14:14:02.904Z,96.99
2023-01-13T14:16:31.773Z,96.80
2023-01-13T14:19:00.203Z,97.07
2023-01-13T14:21:30.725Z,97.15
2023-01-13T14:24:03.367Z,97.20
2023-01-13T14:26:33.591Z,97.50
2023-01-13T14:29:03.105Z,97.25
2023-01-13T14:31:31.576Z,97.28
2023-01-13T14:34:02.279Z,97.33
2023-01-13T14:36:39.026Z,97.38
2023-01-13T14:39:27.201Z,97.07
2023-01-13T14:41:55.277Z,97.20
2023-01-13T14:44:26.982Z,97.06
2023-01-13T14:46:56.619Z,97.27
2023-01-13T14:49:27.672Z,97.11
2023-01-13T14:52:05.897Z,97.10
2023-01-13T14:54:44.078Z,96.93
2023-01-13T14:57:17.536Z,96.61
2023-01-13T14:59:51.758Z,96.80
2023-01-13T15:02:44.702Z,96.95
2023-01-13T15:05:47.405Z,97.06
2023-01-13T15:08:33.991Z,97.17
2023-01-13T15:11:04.322Z,96.91
2023-01-13T15:13:37.238Z,97.35
2023-01-13T15:16:07.811Z,97.40
2023-01-13T15:18:40.094Z,97.38
2023-01-13T15:21:09.235Z,97.72
2023-01-13T15:23:39.982Z,97.95
2023-01-13T15:26:19.881Z,97.76
2023-01-13T15:28:48.450Z,97.88
2023-01-13T15:31:17.169Z,98.04
2023-01-13T15:33:45.239Z,97.92
2023-01-13T15:36:32.972Z,98.22
2023-01-13T15:39:02.607Z,98.45
2023-01-13T15:41:48.308Z,97.67
2023-01-13T15:44:34.389Z,97.83
2023-01-13T15:47:04.018Z,97.79
2023-01-13T15:49:36.247Z,97.90
2023-01-13T15:52:05.649Z,98.15
2023-01-13T15:54:35.062Z,98.23
2023-01-13T15:57:03.108Z,98.12
2023-01-13T15:59:31.322Z,98.47
2023-01-13T16:01:59.402Z,98.45
2023-01-13T16:04:27.476Z,98.24
2023-01-13T16:06:55.563Z,98.63
2023-01-13T16:09:23.750Z,98.42
2023-01-13T16:11:53.198Z,98.46
2023-01-13T16:14:21.348Z,98.28
2023-01-13T16:16:49.439Z,98.11
2023-01-13T16:19:17.510Z,97.77
2023-01-13T16:21:46.109Z,97.63
2023-01-13T16:24:14.194Z,97.77
2023-01-13T16:26:42.332Z,97.83
2023-01-13T16:29:12.978Z,97.82
2023-01-13T16:31:41.280Z,97.69
2023-01-13T16:34:09.385Z,97.58
2023-01-13T16:36:38.024Z,97.65
2023-01-13T16:39:06.723Z,97.88
2023-01-13T16:41:35.005Z,97.61
2023-01-13T16:44:06.099Z,97.93
2023-01-13T16:46:35.681Z,97.68
2023-01-13T16:49:05.634Z,97.86
2023-01-13T16:51:34.359Z,97.75
2023-01-13T16:54:02.452Z,97.64
2023-01-13T16:56:32.204Z,97.76
2023-01-13T16:59:05.757Z,97.96
2023-01-13T17:01:37.183Z,97.87
2023-01-13T17:04:06.148Z,97.74
2023-01-13T17:06:38.404Z,97.73
2023-01-13T17:09:08.564Z,97.69
2023-01-13T17:11:36.777Z,97.79
2023-01-13T17:14:18.486Z,97.80
2023-01-13T17:16:48.931Z,97.72
2023-01-13T17:19:17.148Z,97.84
2023-01-13T17:21:47.042Z,97.84
2023-01-13T17:24:15.588Z,97.93
2023-01-13T17:26:47.566Z,97.96
2023-01-13T17:29:17.851Z,97.95
2023-01-13T17:31:46.318Z,97.84
2023-01-13T17:34:15.851Z,97.82
2023-01-13T17:36:43.941Z,97.66
2023-01-13T17:39:16.238Z,97.77
2023-01-13T17:41:44.297Z,97.57
2023-01-13T17:44:14.342Z,97.76
2023-01-13T17:46:42.993Z,97.77
2023-01-13T17:49:11.701Z,97.57
2023-01-13T17:51:41.381Z,97.79
2023-01-13T17:54:12.427Z,97.67
2023-01-13T17:56:40.728Z,97.47
2023-01-13T17:59:10.360Z,97.67
2023-01-13T18:01:39.210Z,97.69
2023-01-13T18:04:07.965Z,97.58
2023-01-13T18:06:36.090Z,97.48
2023-01-13T18:09:05.547Z,97.50
2023-01-13T18:11:33.640Z,97.46
2023-01-13T18:14:01.767Z,97.15
2023-01-13T18:16:31.479Z,97.09
2023-01-13T18:19:14.409Z,97.12
2023-01-13T18:22:00.329Z,96.95
2023-01-13T18:24:47.298Z,96.63
2023-01-13T18:27:23.036Z,96.74
2023-01-13T18:29:52.368Z,96.89
2023-01-13T18:32:21.480Z,96.75
2023-01-13T18:34:53.932Z,96.88
2023-01-13T18:37:27.464Z,96.65
2023-01-13T18:39:57.109Z,96.84
2023-01-13T18:42:42.770Z,96.60
2023-01-13T18:45:11.636Z,96.72
2023-01-13T18:47:42.233Z,96.28
2023-01-13T18:50:12.269Z,96.49
2023-01-13T18:52:40.909Z,96.16
2023-01-13T18:55:11.310Z,96.24
2023-01-13T18:57:40.932Z,96.35
2023-01-13T19:00:12.344Z,96.10
2023-01-13T19:02:40.748Z,96.03
2023-01-13T19:05:09.362Z,96.22
2023-01-13T19:07:37.684Z,96.52
2023-01-13T19:10:08.146Z,96.29
2023-01-13T19:12:37.767Z,96.55
2023-01-13T19:15:06.660Z,96.59
2023-01-13T19:17:36.173Z,96.58
2023-01-13T19:20:05.093Z,96.91
2023-01-13T19:22:35.085Z,96.97
2023-01-13T19:25:03.769Z,96.93
2023-01-13T19:27:32.218Z,97.08
2023-01-13T19:30:02.707Z,97.13
2023-01-13T19:32:33.691Z,97.45
2023-01-13T19:35:01.819Z,97.62
2023-01-13T19:37:31.408Z,97.77
2023-01-13T19:39:59.644Z,97.98
2023-01-13T19:42:45.583Z,98.12
2023-01-13T19:45:28.159Z,98.16
2023-01-13T19:47:57.021Z,98.27
2023-01-13T19:50:25.292Z,98.48
2023-01-13T19:52:53.478Z,98.71
2023-01-13T19:55:21.620Z,98.34
2023-01-13T19:57:49.685Z,98.47
2023-01-13T20:00:20.940Z,98.37
2023-01-13T20:02:51.756Z,98.24
2023-01-13T20:05:22.535Z,98.47
2023-01-13T20:07:51.272Z,98.30
2023-01-13T20:10:20.674Z,98.35
2023-01-13T20:12:48.807Z,98.07
2023-01-13T20:15:17.126Z,98.21
2023-01-13T20:17:46.598Z,98.08
2023-01-13T20:20:15.823Z,97.97
2023-01-13T20:22:43.943Z,97.77
2023-01-13T20:25:13.325Z,97.95
2023-01-13T20:27:41.552Z,98.05
2023-01-13T20:30:13.360Z,98.10
2023-01-13T20:32:41.580Z,98.09
2023-01-13T20:35:11.726Z,97.77
2023-01-13T20:37:40.511Z,97.92
2023-01-13T20:40:10.391Z,97.88
2023-01-13T20:42:44.743Z,98.00
2023-01-13T20:45:17.126Z,97.95
2023-01-13T20:47:46.681Z,97.99
2023-01-13T20:50:16.795Z,97.90
2023-01-13T20:52:45.375Z,98.23
2023-01-13T20:55:13.860Z,98.00
2023-01-13T20:57:41.929Z,98.09
2023-01-13T21:00:11.366Z,97.87
2023-01-13T21:02:41.155Z,97.71
2023-01-13T21:05:09.804Z,97.86
2023-01-13T21:07:39.269Z,97.81
2023-01-13T21:10:07.942Z,97.67
2023-01-13T21:12:53.598Z,97.74
2023-01-13T21:15:23.012Z,97.84
2023-01-13T21:18:09.816Z,97.73
2023-01-13T21:20:39.346Z,97.74
2023-01-13T21:23:10.770Z,97.57
2023-01-13T21:25:40.205Z,97.29
2023-01-13T21:28:11.353Z,97.25
2023-01-13T21:30:39.718Z,97.06
2023-01-13T21:33:08.175Z,97.05
2023-01-13T21:35:39.381Z,97.08
2023-01-13T21:38:08.853Z,97.02
2023-01-13T21:40:37.019Z,96.81
2023-01-13T21:43:22.568Z,96.74
2023-01-13T21:46:08.394Z,96.91
2023-01-13T21:48:36.489Z,96.75
2023-01-13T21:51:05.003Z,97.00
2023-01-13T21:53:34.475Z,96.74
2023-01-13T21:56:02.614Z,96.23
2023-01-13T21:58:30.691Z,96.38
2023-01-13T22:01:02.117Z,96.77
2023-01-13T22:03:30.281Z,96.58
2023-01-13T22:05:58.329Z,96.57
2023-01-13T22:08:26.387Z,96.15
2023-01-13T22:10:59.347Z,96.46
2023-01-13T22:13:46.689Z,96.09
2023-01-13T22:16:15.910Z,95.61
2023-01-13T22:18:44.083Z,95.49
2023-01-13T22:21:12.588Z,95.17
2023-01-13T22:23:40.681Z,94.21
2023-01-13T22:26:10.158Z,94.89
2023-01-13T22:28:42.916Z,94.78
2023-01-13T22:31:12.207Z,94.87
2023-01-13T22:33:40.568Z,94.54
2023-01-13T22:36:10.207Z,94.66
2023-01-13T22:38:38.355Z,94.43
2023-01-13T22:41:08.087Z,94.61
2023-01-13T22:43:38.323Z,94.66
2023-01-13T22:46:08.468Z,94.33
2023-01-13T22:48:36.897Z,94.64
2023-01-13T22:51:06.651Z,94.90
2023-01-13T22:53:35.166Z,94.93
2023-01-13T22:56:03.294Z,95.43
2023-01-13T22:58:31.480Z,95.19
2023-01-13T23:01:10.427Z,95.27
2023-01-13T23:03:38.626Z,95.39
2023-01-13T23:06:07.291Z,95.58
2023-01-13T23:08:35.927Z,95.34
2023-01-13T23:11:04.781Z,95.57
2023-01-13T23:13:32.932Z,95.35
2023-01-13T23:16:03.908Z,96.07
2023-01-13T23:18:33.659Z,95.91
2023-01-13T23:21:05.863Z,96.00
2023-01-13T23:23:35.203Z,96.06
2023-01-13T23:26:03.792Z,96.28
2023-01-13T23:28:32.047Z,96.06
2023-01-13T23:31:00.241Z,96.27
2023-01-13T23:33:28.362Z,96.48
2023-01-13T23:35:58.631Z,96.68
2023-01-13T23:38:27.130Z,96.84
2023-01-13T23:40:55.419Z,97.06
2023-01-13T23:43:24.047Z,97.19
2023-01-13T23:45:52.170Z,97.08
2023-01-13T23:48:20.368Z,96.98
2023-01-13T23:50:59.205Z,97.14
2023-01-13T23:53:33.257Z,97.09
2023-01-13T23:56:01.949Z,96.86
2023-01-13T23:58:30.836Z,97.08
